sensor_id;sensor_type;location;lat;lon;timestamp;P1;durP1;ratioP1;P2;durP2;ratioP2
12467;SDS011;57850;52.922;6.256;2023-02-15T00:00:44;37.87;;;23.03;;
12467;SDS011;57850;52.922;6.256;2023-02-15T00:03:10;36.73;;;22.47;;
12467;SDS011;57850;52.922;6.256;2023-02-15T00:05:37;37.37;;;22.23;;
12467;SDS011;57850;52.922;6.256;2023-02-15T00:08:05;38.77;;;22.97;;
12467;SDS011;57850;52.922;6.256;2023-02-15T00:10:32;42.97;;;22.77;;
12467;SDS011;57850;52.922;6.256;2023-02-15T00:12:59;39.30;;;24.23;;
12467;SDS011;57850;52.922;6.256;2023-02-15T00:15:26;56.57;;;30.97;;
12467;SDS011;57850;52.922;6.256;2023-02-15T00:17:52;51.30;;;28.87;;
12467;SDS011;57850;52.922;6.256;2023-02-15T00:20:19;42.07;;;26.83;;
12467;SDS011;57850;52.922;6.256;2023-02-15T00:22:45;78.67;;;33.20;;
12467;SDS011;57850;52.922;6.256;2023-02-15T00:25:13;85.37;;;33.83;;
12467;SDS011;57850;52.922;6.256;2023-02-15T00:27:40;58.53;;;30.97;;
12467;SDS011;57850;52.922;6.256;2023-02-15T00:30:07;60.83;;;33.60;;
12467;SDS011;57850;52.922;6.256;2023-02-15T00:32:34;55.73;;;31.97;;
12467;SDS011;57850;52.922;6.256;2023-02-15T00:35:01;60.97;;;32.20;;
12467;SDS011;57850;52.922;6.256;2023-02-15T00:37:27;63.43;;;32.50;;
12467;SDS011;57850;52.922;6.256;2023-02-15T00:39:54;52.90;;;31.03;;
12467;SDS011;57850;52.922;6.256;2023-02-15T00:42:22;53.37;;;30.63;;
12467;SDS011;57850;52.922;6.256;2023-02-15T00:44:49;55.83;;;29.07;;
12467;SDS011;57850;52.922;6.256;2023-02-15T00:47:15;48.27;;;28.97;;
12467;SDS011;57850;52.922;6.256;2023-02-15T00:49:42;40.83;;;26.90;;
12467;SDS011;57850;52.922;6.256;2023-02-15T00:52:08;50.47;;;30.57;;
12467;SDS011;57850;52.922;6.256;2023-02-15T00:54:35;47.27;;;31.07;;
12467;SDS011;57850;52.922;6.256;2023-02-15T00:57:03;44.00;;;28.00;;
12467;SDS011;57850;52.922;6.256;2023-02-15T00:59:31;47.30;;;28.50;;
12467;SDS011;57850;52.922;6.256;2023-02-15T01:01:58;44.27;;;28.00;;
12467;SDS011;57850;52.922;6.256;2023-02-15T01:04:24;46.40;;;26.33;;
12467;SDS011;57850;52.922;6.256;2023-02-15T01:06:51;60.80;;;27.50;;
12467;SDS011;57850;52.922;6.256;2023-02-15T01:09:17;76.00;;;27.97;;
12467;SDS011;57850;52.922;6.256;2023-02-15T01:11:44;60.57;;;25.77;;
12467;SDS011;57850;52.922;6.256;2023-02-15T01:14:10;54.33;;;25.23;;
12467;SDS011;57850;52.922;6.256;2023-02-15T01:16:39;36.93;;;23.90;;
12467;SDS011;57850;52.922;6.256;2023-02-15T01:19:06;39.50;;;26.23;;
12467;SDS011;57850;52.922;6.256;2023-02-15T01:21:33;37.23;;;24.83;;
12467;SDS011;57850;52.922;6.256;2023-02-15T01:23:59;44.67;;;27.53;;
12467;SDS011;57850;52.922;6.256;2023-02-15T01:26:26;46.63;;;25.30;;
12467;SDS011;57850;52.922;6.256;2023-02-15T01:28:53;40.03;;;25.93;;
12467;SDS011;57850;52.922;6.256;2023-02-15T01:31:20;37.17;;;24.27;;
12467;SDS011;57850;52.922;6.256;2023-02-15T01:33:48;35.03;;;25.37;;
12467;SDS011;57850;52.922;6.256;2023-02-15T01:36:15;37.43;;;24.60;;
12467;SDS011;57850;52.922;6.256;2023-02-15T01:38:42;36.20;;;23.87;;
12467;SDS011;57850;52.922;6.256;2023-02-15T01:41:09;38.93;;;25.63;;
12467;SDS011;57850;52.922;6.256;2023-02-15T01:43:53;39.77;;;26.60;;
12467;SDS011;57850;52.922;6.256;2023-02-15T01:46:22;43.67;;;26.57;;
12467;SDS011;57850;52.922;6.256;2023-02-15T01:48:55;45.50;;;28.33;;
12467;SDS011;57850;52.922;6.256;2023-02-15T01:51:26;48.47;;;30.23;;
12467;SDS011;57850;52.922;6.256;2023-02-15T01:53:57;44.30;;;28.90;;
12467;SDS011;57850;52.922;6.256;2023-02-15T01:56:29;108.70;;;34.33;;
12467;SDS011;57850;52.922;6.256;2023-02-15T01:59:00;91.40;;;35.50;;
12467;SDS011;57850;52.922;6.256;2023-02-15T02:01:31;95.67;;;35.33;;
12467;SDS011;57850;52.922;6.256;2023-02-15T02:04:00;87.77;;;34.27;;
12467;SDS011;57850;52.922;6.256;2023-02-15T02:06:32;97.37;;;35.47;;
12467;SDS011;57850;52.922;6.256;2023-02-15T02:08:59;69.87;;;34.80;;
12467;SDS011;57850;52.922;6.256;2023-02-15T02:11:26;56.17;;;32.37;;
12467;SDS011;57850;52.922;6.256;2023-02-15T02:13:53;57.33;;;32.77;;
12467;SDS011;57850;52.922;6.256;2023-02-15T02:16:23;57.87;;;33.93;;
12467;SDS011;57850;52.922;6.256;2023-02-15T02:18:57;52.83;;;32.30;;
12467;SDS011;57850;52.922;6.256;2023-02-15T02:25:02;53.60;;;30.37;;
12467;SDS011;57850;52.922;6.256;2023-02-15T02:27:42;48.70;;;30.73;;
12467;SDS011;57850;52.922;6.256;2023-02-15T02:33:10;56.43;;;31.30;;
12467;SDS011;57850;52.922;6.256;2023-02-15T02:35:48;47.23;;;30.63;;
12467;SDS011;57850;52.922;6.256;2023-02-15T02:38:25;52.47;;;30.63;;
12467;SDS011;57850;52.922;6.256;2023-02-15T02:41:00;45.40;;;29.33;;
12467;SDS011;57850;52.922;6.256;2023-02-15T02:43:38;44.97;;;28.50;;
12467;SDS011;57850;52.922;6.256;2023-02-15T02:46:12;36.90;;;25.07;;
12467;SDS011;57850;52.922;6.256;2023-02-15T02:48:45;41.33;;;27.53;;
12467;SDS011;57850;52.922;6.256;2023-02-15T02:51:14;43.00;;;27.50;;
12467;SDS011;57850;52.922;6.256;2023-02-15T02:53:46;46.13;;;29.80;;
12467;SDS011;57850;52.922;6.256;2023-02-15T02:56:21;44.70;;;27.80;;
12467;SDS011;57850;52.922;6.256;2023-02-15T02:58:51;45.13;;;28.13;;
12467;SDS011;57850;52.922;6.256;2023-02-15T03:01:27;45.23;;;27.83;;
12467;SDS011;57850;52.922;6.256;2023-02-15T03:03:59;44.60;;;26.40;;
12467;SDS011;57850;52.922;6.256;2023-02-15T03:06:35;37.70;;;25.47;;
12467;SDS011;57850;52.922;6.256;2023-02-15T03:09:08;42.87;;;26.97;;
12467;SDS011;57850;52.922;6.256;2023-02-15T03:11:40;51.97;;;26.93;;
12467;SDS011;57850;52.922;6.256;2023-02-15T03:14:09;67.17;;;29.10;;
12467;SDS011;57850;52.922;6.256;2023-02-15T03:16:36;82.57;;;29.60;;
12467;SDS011;57850;52.922;6.256;2023-02-15T03:19:09;55.07;;;29.00;;
12467;SDS011;57850;52.922;6.256;2023-02-15T03:21:40;52.30;;;30.23;;
12467;SDS011;57850;52.922;6.256;2023-02-15T03:24:15;54.60;;;30.60;;
12467;SDS011;57850;52.922;6.256;2023-02-15T03:26:46;56.03;;;30.23;;
12467;SDS011;57850;52.922;6.256;2023-02-15T03:29:15;54.77;;;31.63;;
12467;SDS011;57850;52.922;6.256;2023-02-15T03:31:43;57.93;;;31.47;;
12467;SDS011;57850;52.922;6.256;2023-02-15T03:34:17;55.73;;;29.63;;
12467;SDS011;57850;52.922;6.256;2023-02-15T03:36:44;57.87;;;28.30;;
12467;SDS011;57850;52.922;6.256;2023-02-15T03:39:18;51.17;;;28.20;;
12467;SDS011;57850;52.922;6.256;2023-02-15T03:41:51;55.57;;;30.00;;
12467;SDS011;57850;52.922;6.256;2023-02-15T03:44:26;51.93;;;28.77;;
12467;SDS011;57850;52.922;6.256;2023-02-15T03:46:56;49.90;;;28.53;;
12467;SDS011;57850;52.922;6.256;2023-02-15T03:49:30;44.17;;;26.43;;
12467;SDS011;57850;52.922;6.256;2023-02-15T03:52:03;38.47;;;24.77;;
12467;SDS011;57850;52.922;6.256;2023-02-15T03:54:33;37.63;;;24.77;;
12467;SDS011;57850;52.922;6.256;2023-02-15T03:57:16;33.63;;;23.53;;
12467;SDS011;57850;52.922;6.256;2023-02-15T04:00:03;49.33;;;26.13;;
12467;SDS011;57850;52.922;6.256;2023-02-15T04:02:52;43.60;;;25.67;;
12467;SDS011;57850;52.922;6.256;2023-02-15T04:05:32;35.90;;;24.90;;
12467;SDS011;57850;52.922;6.256;2023-02-15T04:07:58;45.53;;;26.93;;
12467;SDS011;57850;52.922;6.256;2023-02-15T04:10:25;43.77;;;28.00;;
12467;SDS011;57850;52.922;6.256;2023-02-15T04:13:09;46.47;;;25.87;;
12467;SDS011;57850;52.922;6.256;2023-02-15T04:15:35;48.83;;;28.00;;
12467;SDS011;57850;52.922;6.256;2023-02-15T04:18:20;47.50;;;26.83;;
12467;SDS011;57850;52.922;6.256;2023-02-15T04:20:47;52.27;;;30.47;;
12467;SDS011;57850;52.922;6.256;2023-02-15T04:23:32;55.10;;;29.07;;
12467;SDS011;57850;52.922;6.256;2023-02-15T04:26:16;49.17;;;27.03;;
12467;SDS011;57850;52.922;6.256;2023-02-15T04:28:43;50.83;;;27.83;;
12467;SDS011;57850;52.922;6.256;2023-02-15T04:31:09;82.23;;;30.73;;
12467;SDS011;57850;52.922;6.256;2023-02-15T04:33:36;71.83;;;30.50;;
12467;SDS011;57850;52.922;6.256;2023-02-15T04:36:04;53.40;;;29.57;;
12467;SDS011;57850;52.922;6.256;2023-02-15T04:38:31;60.33;;;29.93;;
12467;SDS011;57850;52.922;6.256;2023-02-15T04:40:58;45.83;;;30.53;;
12467;SDS011;57850;52.922;6.256;2023-02-15T04:43:24;113.70;;;33.77;;
12467;SDS011;57850;52.922;6.256;2023-02-15T04:45:51;98.43;;;34.00;;
12467;SDS011;57850;52.922;6.256;2023-02-15T04:48:17;73.37;;;31.77;;
12467;SDS011;57850;52.922;6.256;2023-02-15T04:50:44;58.40;;;32.37;;
12467;SDS011;57850;52.922;6.256;2023-02-15T04:53:12;60.80;;;31.00;;
12467;SDS011;57850;52.922;6.256;2023-02-15T04:55:39;46.87;;;29.60;;
12467;SDS011;57850;52.922;6.256;2023-02-15T04:58:06;117.37;;;35.00;;
12467;SDS011;57850;52.922;6.256;2023-02-15T05:00:33;64.73;;;31.87;;
12467;SDS011;57850;52.922;6.256;2023-02-15T05:02:59;63.63;;;31.90;;
12467;SDS011;57850;52.922;6.256;2023-02-15T05:05:26;63.43;;;32.17;;
12467;SDS011;57850;52.922;6.256;2023-02-15T05:07:52;71.80;;;30.90;;
12467;SDS011;57850;52.922;6.256;2023-02-15T05:10:20;58.07;;;31.03;;
12467;SDS011;57850;52.922;6.256;2023-02-15T05:12:47;79.57;;;34.10;;
12467;SDS011;57850;52.922;6.256;2023-02-15T05:15:14;52.67;;;30.73;;
12467;SDS011;57850;52.922;6.256;2023-02-15T05:17:40;51.20;;;31.90;;
12467;SDS011;57850;52.922;6.256;2023-02-15T05:20:07;52.90;;;32.70;;
12467;SDS011;57850;52.922;6.256;2023-02-15T05:22:34;56.90;;;32.63;;
12467;SDS011;57850;52.922;6.256;2023-02-15T05:25:01;74.17;;;34.80;;
12467;SDS011;57850;52.922;6.256;2023-02-15T05:27:46;52.03;;;33.43;;
12467;SDS011;57850;52.922;6.256;2023-02-15T05:30:30;60.93;;;35.67;;
12467;SDS011;57850;52.922;6.256;2023-02-15T05:32:56;68.93;;;36.93;;
12467;SDS011;57850;52.922;6.256;2023-02-15T05:35:23;64.17;;;37.27;;
12467;SDS011;57850;52.922;6.256;2023-02-15T05:37:49;61.07;;;34.57;;
12467;SDS011;57850;52.922;6.256;2023-02-15T05:40:16;62.90;;;35.13;;
12467;SDS011;57850;52.922;6.256;2023-02-15T05:42:42;60.63;;;34.17;;
12467;SDS011;57850;52.922;6.256;2023-02-15T05:45:10;78.83;;;35.43;;
12467;SDS011;57850;52.922;6.256;2023-02-15T05:47:37;75.63;;;35.33;;
12467;SDS011;57850;52.922;6.256;2023-02-15T05:50:05;64.67;;;34.80;;
12467;SDS011;57850;52.922;6.256;2023-02-15T05:52:32;91.40;;;34.30;;
12467;SDS011;57850;52.922;6.256;2023-02-15T05:54:58;111.20;;;34.53;;
12467;SDS011;57850;52.922;6.256;2023-02-15T05:57:25;144.83;;;36.57;;
12467;SDS011;57850;52.922;6.256;2023-02-15T05:59:52;185.53;;;36.03;;
12467;SDS011;57850;52.922;6.256;2023-02-15T06:02:20;165.03;;;36.07;;
12467;SDS011;57850;52.922;6.256;2023-02-15T06:04:47;298.07;;;40.80;;
12467;SDS011;57850;52.922;6.256;2023-02-15T06:07:13;205.33;;;35.87;;
12467;SDS011;57850;52.922;6.256;2023-02-15T06:09:40;220.67;;;36.53;;
12467;SDS011;57850;52.922;6.256;2023-02-15T06:12:06;149.37;;;38.83;;
12467;SDS011;57850;52.922;6.256;2023-02-15T06:14:33;142.43;;;51.27;;
12467;SDS011;57850;52.922;6.256;2023-02-15T06:16:59;136.90;;;53.43;;
12467;SDS011;57850;52.922;6.256;2023-02-15T06:19:27;130.53;;;54.47;;
12467;SDS011;57850;52.922;6.256;2023-02-15T06:21:54;117.40;;;58.57;;
12467;SDS011;57850;52.922;6.256;2023-02-15T06:24:20;107.70;;;37.77;;
12467;SDS011;57850;52.922;6.256;2023-02-15T06:26:47;83.37;;;35.40;;
12467;SDS011;57850;52.922;6.256;2023-02-15T06:29:13;63.57;;;34.40;;
12467;SDS011;57850;52.922;6.256;2023-02-15T06:31:40;72.53;;;42.10;;
12467;SDS011;57850;52.922;6.256;2023-02-15T06:34:06;104.80;;;55.47;;
12467;SDS011;57850;52.922;6.256;2023-02-15T06:36:36;55.83;;;36.77;;
12467;SDS011;57850;52.922;6.256;2023-02-15T06:39:02;71.10;;;35.17;;
12467;SDS011;57850;52.922;6.256;2023-02-15T06:41:29;55.80;;;34.17;;
12467;SDS011;57850;52.922;6.256;2023-02-15T06:43:56;57.33;;;35.17;;
12467;SDS011;57850;52.922;6.256;2023-02-15T06:46:22;61.43;;;35.13;;
12467;SDS011;57850;52.922;6.256;2023-02-15T06:48:49;55.17;;;35.70;;
12467;SDS011;57850;52.922;6.256;2023-02-15T06:51:16;54.40;;;35.87;;
12467;SDS011;57850;52.922;6.256;2023-02-15T06:53:44;52.40;;;33.47;;
12467;SDS011;57850;52.922;6.256;2023-02-15T06:56:10;68.43;;;35.93;;
12467;SDS011;57850;52.922;6.256;2023-02-15T06:58:38;67.13;;;34.20;;
12467;SDS011;57850;52.922;6.256;2023-02-15T07:01:06;63.03;;;35.03;;
12467;SDS011;57850;52.922;6.256;2023-02-15T07:03:35;55.67;;;33.63;;
12467;SDS011;57850;52.922;6.256;2023-02-15T07:06:02;83.63;;;42.53;;
12467;SDS011;57850;52.922;6.256;2023-02-15T07:08:31;54.97;;;34.23;;
12467;SDS011;57850;52.922;6.256;2023-02-15T07:10:59;58.33;;;34.60;;
12467;SDS011;57850;52.922;6.256;2023-02-15T07:13:45;55.77;;;33.83;;
12467;SDS011;57850;52.922;6.256;2023-02-15T07:16:11;84.93;;;42.83;;
12467;SDS011;57850;52.922;6.256;2023-02-15T07:18:38;104.60;;;51.63;;
12467;SDS011;57850;52.922;6.256;2023-02-15T07:21:05;351.67;;;131.97;;
12467;SDS011;57850;52.922;6.256;2023-02-15T07:23:33;57.87;;;35.37;;
12467;SDS011;57850;52.922;6.256;2023-02-15T07:26:01;60.53;;;36.07;;
12467;SDS011;57850;52.922;6.256;2023-02-15T07:28:28;57.97;;;35.73;;
12467;SDS011;57850;52.922;6.256;2023-02-15T07:30:54;60.70;;;34.80;;
12467;SDS011;57850;52.922;6.256;2023-02-15T07:33:22;56.20;;;36.90;;
12467;SDS011;57850;52.922;6.256;2023-02-15T07:35:49;56.33;;;33.93;;
12467;SDS011;57850;52.922;6.256;2023-02-15T07:38:16;92.73;;;52.57;;
12467;SDS011;57850;52.922;6.256;2023-02-15T07:40:43;57.00;;;34.40;;
12467;SDS011;57850;52.922;6.256;2023-02-15T07:43:11;52.57;;;33.80;;
12467;SDS011;57850;52.922;6.256;2023-02-15T07:45:39;58.70;;;35.70;;
12467;SDS011;57850;52.922;6.256;2023-02-15T07:48:06;57.93;;;36.03;;
12467;SDS011;57850;52.922;6.256;2023-02-15T07:50:33;57.47;;;35.30;;
12467;SDS011;57850;52.922;6.256;2023-02-15T07:53:00;55.30;;;34.30;;
12467;SDS011;57850;52.922;6.256;2023-02-15T07:55:28;55.80;;;34.67;;
12467;SDS011;57850;52.922;6.256;2023-02-15T07:57:54;58.10;;;36.07;;
12467;SDS011;57850;52.922;6.256;2023-02-15T08:00:22;61.40;;;36.80;;
12467;SDS011;57850;52.922;6.256;2023-02-15T08:02:50;61.87;;;35.90;;
12467;SDS011;57850;52.922;6.256;2023-02-15T08:05:37;59.30;;;36.03;;
12467;SDS011;57850;52.922;6.256;2023-02-15T08:08:05;55.37;;;35.30;;
12467;SDS011;57850;52.922;6.256;2023-02-15T08:10:32;60.17;;;34.53;;
12467;SDS011;57850;52.922;6.256;2023-02-15T08:13:16;59.40;;;34.57;;
12467;SDS011;57850;52.922;6.256;2023-02-15T08:15:48;57.10;;;35.57;;
12467;SDS011;57850;52.922;6.256;2023-02-15T08:18:15;49.87;;;33.70;;
12467;SDS011;57850;52.922;6.256;2023-02-15T08:20:42;56.47;;;34.20;;
12467;SDS011;57850;52.922;6.256;2023-02-15T08:23:08;58.43;;;37.07;;
12467;SDS011;57850;52.922;6.256;2023-02-15T08:25:35;70.50;;;44.07;;
12467;SDS011;57850;52.922;6.256;2023-02-15T08:28:02;52.80;;;34.30;;
12467;SDS011;57850;52.922;6.256;2023-02-15T08:30:28;60.27;;;38.97;;
12467;SDS011;57850;52.922;6.256;2023-02-15T08:32:56;49.97;;;32.67;;
12467;SDS011;57850;52.922;6.256;2023-02-15T08:35:23;45.23;;;30.40;;
12467;SDS011;57850;52.922;6.256;2023-02-15T08:37:49;46.03;;;30.50;;
12467;SDS011;57850;52.922;6.256;2023-02-15T08:40:17;43.07;;;30.03;;
12467;SDS011;57850;52.922;6.256;2023-02-15T08:42:44;36.37;;;27.03;;
12467;SDS011;57850;52.922;6.256;2023-02-15T08:45:10;35.13;;;25.48;;
12467;SDS011;57850;52.922;6.256;2023-02-15T08:47:37;33.67;;;23.80;;
12467;SDS011;57850;52.922;6.256;2023-02-15T08:50:05;30.08;;;22.85;;
12467;SDS011;57850;52.922;6.256;2023-02-15T08:52:32;31.88;;;22.20;;
12467;SDS011;57850;52.922;6.256;2023-02-15T08:54:59;33.55;;;23.55;;
12467;SDS011;57850;52.922;6.256;2023-02-15T08:57:25;31.30;;;21.85;;
12467;SDS011;57850;52.922;6.256;2023-02-15T08:59:53;33.07;;;22.80;;
12467;SDS011;57850;52.922;6.256;2023-02-15T09:02:20;33.17;;;23.77;;
12467;SDS011;57850;52.922;6.256;2023-02-15T09:04:46;30.35;;;23.38;;
12467;SDS011;57850;52.922;6.256;2023-02-15T09:07:14;32.67;;;22.75;;
12467;SDS011;57850;52.922;6.256;2023-02-15T09:09:42;31.63;;;22.17;;
12467;SDS011;57850;52.922;6.256;2023-02-15T09:12:09;30.23;;;22.20;;
12467;SDS011;57850;52.922;6.256;2023-02-15T09:14:36;33.38;;;22.83;;
12467;SDS011;57850;52.922;6.256;2023-02-15T09:17:02;28.52;;;21.35;;
12467;SDS011;57850;52.922;6.256;2023-02-15T09:19:29;28.55;;;21.77;;
12467;SDS011;57850;52.922;6.256;2023-02-15T09:21:56;28.23;;;21.67;;
12467;SDS011;57850;52.922;6.256;2023-02-15T09:24:24;28.70;;;21.10;;
12467;SDS011;57850;52.922;6.256;2023-02-15T09:26:51;30.95;;;22.10;;
12467;SDS011;57850;52.922;6.256;2023-02-15T09:29:17;31.60;;;22.13;;
12467;SDS011;57850;52.922;6.256;2023-02-15T09:31:45;29.95;;;22.58;;
12467;SDS011;57850;52.922;6.256;2023-02-15T09:34:14;31.38;;;22.08;;
12467;SDS011;57850;52.922;6.256;2023-02-15T09:36:42;37.17;;;22.58;;
12467;SDS011;57850;52.922;6.256;2023-02-15T09:39:10;28.13;;;21.55;;
12467;SDS011;57850;52.922;6.256;2023-02-15T09:44:34;29.55;;;23.05;;
12467;SDS011;57850;52.922;6.256;2023-02-15T09:47:17;31.40;;;22.48;;
12467;SDS011;57850;52.922;6.256;2023-02-15T09:50:03;32.42;;;22.25;;
12467;SDS011;57850;52.922;6.256;2023-02-15T09:52:40;28.58;;;22.60;;
12467;SDS011;57850;52.922;6.256;2023-02-15T09:55:20;32.05;;;23.40;;
12467;SDS011;57850;52.922;6.256;2023-02-15T09:57:59;32.42;;;23.38;;
12467;SDS011;57850;52.922;6.256;2023-02-15T10:00:35;32.67;;;24.02;;
12467;SDS011;57850;52.922;6.256;2023-02-15T10:03:18;33.67;;;24.38;;
12467;SDS011;57850;52.922;6.256;2023-02-15T10:06:03;30.58;;;22.83;;
12467;SDS011;57850;52.922;6.256;2023-02-15T10:08:48;30.90;;;23.52;;
12467;SDS011;57850;52.922;6.256;2023-02-15T10:11:27;33.03;;;24.10;;
12467;SDS011;57850;52.922;6.256;2023-02-15T10:14:12;33.72;;;25.20;;
12467;SDS011;57850;52.922;6.256;2023-02-15T10:16:54;32.05;;;23.13;;
12467;SDS011;57850;52.922;6.256;2023-02-15T10:19:30;30.90;;;23.35;;
12467;SDS011;57850;52.922;6.256;2023-02-15T10:22:06;33.40;;;24.50;;
12467;SDS011;57850;52.922;6.256;2023-02-15T10:24:51;33.60;;;25.00;;
12467;SDS011;57850;52.922;6.256;2023-02-15T10:27:32;33.83;;;24.30;;
12467;SDS011;57850;52.922;6.256;2023-02-15T10:30:08;34.47;;;24.58;;
12467;SDS011;57850;52.922;6.256;2023-02-15T10:32:38;31.40;;;24.67;;
12467;SDS011;57850;52.922;6.256;2023-02-15T10:35:17;33.67;;;25.05;;
12467;SDS011;57850;52.922;6.256;2023-02-15T10:37:53;31.27;;;25.10;;
12467;SDS011;57850;52.922;6.256;2023-02-15T10:40:30;34.20;;;25.88;;
12467;SDS011;57850;52.922;6.256;2023-02-15T10:43:22;33.67;;;25.90;;
12467;SDS011;57850;52.922;6.256;2023-02-15T10:46:00;32.88;;;24.48;;
12467;SDS011;57850;52.922;6.256;2023-02-15T10:48:38;37.40;;;25.85;;
12467;SDS011;57850;52.922;6.256;2023-02-15T10:51:14;34.67;;;25.38;;
12467;SDS011;57850;52.922;6.256;2023-02-15T10:53:50;38.83;;;26.02;;
12467;SDS011;57850;52.922;6.256;2023-02-15T10:56:29;33.58;;;25.88;;
12467;SDS011;57850;52.922;6.256;2023-02-15T10:59:16;35.33;;;25.10;;
12467;SDS011;57850;52.922;6.256;2023-02-15T11:01:54;37.20;;;26.40;;
12467;SDS011;57850;52.922;6.256;2023-02-15T11:04:35;36.47;;;25.30;;
12467;SDS011;57850;52.922;6.256;2023-02-15T11:07:19;35.40;;;26.08;;
12467;SDS011;57850;52.922;6.256;2023-02-15T11:09:50;38.67;;;27.35;;
12467;SDS011;57850;52.922;6.256;2023-02-15T11:12:22;33.65;;;25.88;;
12467;SDS011;57850;52.922;6.256;2023-02-15T11:14:53;37.25;;;25.27;;
12467;SDS011;57850;52.922;6.256;2023-02-15T11:17:28;35.38;;;26.60;;
12467;SDS011;57850;52.922;6.256;2023-02-15T11:20:04;36.95;;;26.83;;
12467;SDS011;57850;52.922;6.256;2023-02-15T11:22:41;35.58;;;27.42;;
12467;SDS011;57850;52.922;6.256;2023-02-15T11:25:14;34.17;;;26.58;;
12467;SDS011;57850;52.922;6.256;2023-02-15T11:27:45;39.33;;;28.67;;
12467;SDS011;57850;52.922;6.256;2023-02-15T11:30:14;36.28;;;27.95;;
12467;SDS011;57850;52.922;6.256;2023-02-15T11:32:49;36.47;;;28.55;;
12467;SDS011;57850;52.922;6.256;2023-02-15T11:35:19;37.53;;;26.75;;
12467;SDS011;57850;52.922;6.256;2023-02-15T11:37:51;37.88;;;27.35;;
12467;SDS011;57850;52.922;6.256;2023-02-15T11:40:22;36.25;;;26.67;;
12467;SDS011;57850;52.922;6.256;2023-02-15T11:42:53;39.58;;;27.92;;
12467;SDS011;57850;52.922;6.256;2023-02-15T11:45:24;37.42;;;28.20;;
12467;SDS011;57850;52.922;6.256;2023-02-15T11:47:54;37.33;;;28.42;;
12467;SDS011;57850;52.922;6.256;2023-02-15T11:50:23;40.45;;;27.67;;
12467;SDS011;57850;52.922;6.256;2023-02-15T11:52:52;37.10;;;28.00;;
12467;SDS011;57850;52.922;6.256;2023-02-15T11:55:24;36.65;;;27.02;;
12467;SDS011;57850;52.922;6.256;2023-02-15T11:57:54;37.13;;;28.20;;
12467;SDS011;57850;52.922;6.256;2023-02-15T12:00:30;41.15;;;29.25;;
12467;SDS011;57850;52.922;6.256;2023-02-15T12:03:03;38.78;;;28.98;;
12467;SDS011;57850;52.922;6.256;2023-02-15T12:05:40;39.90;;;29.35;;
12467;SDS011;57850;52.922;6.256;2023-02-15T12:08:12;43.72;;;28.38;;
12467;SDS011;57850;52.922;6.256;2023-02-15T12:10:44;45.58;;;27.95;;
12467;SDS011;57850;52.922;6.256;2023-02-15T12:13:22;39.13;;;28.30;;
12467;SDS011;57850;52.922;6.256;2023-02-15T12:15:49;40.70;;;27.27;;
12467;SDS011;57850;52.922;6.256;2023-02-15T12:18:20;40.05;;;28.17;;
12467;SDS011;57850;52.922;6.256;2023-02-15T12:20:58;40.83;;;26.95;;
12467;SDS011;57850;52.922;6.256;2023-02-15T12:23:27;38.20;;;26.95;;
12467;SDS011;57850;52.922;6.256;2023-02-15T12:25:55;43.95;;;27.67;;
12467;SDS011;57850;52.922;6.256;2023-02-15T12:28:24;40.33;;;26.70;;
12467;SDS011;57850;52.922;6.256;2023-02-15T12:30:53;40.80;;;27.52;;
12467;SDS011;57850;52.922;6.256;2023-02-15T12:33:25;38.97;;;26.30;;
12467;SDS011;57850;52.922;6.256;2023-02-15T12:35:56;38.53;;;26.40;;
12467;SDS011;57850;52.922;6.256;2023-02-15T12:38:26;37.55;;;27.45;;
12467;SDS011;57850;52.922;6.256;2023-02-15T12:40:57;36.95;;;25.88;;
12467;SDS011;57850;52.922;6.256;2023-02-15T12:43:26;38.35;;;26.05;;
12467;SDS011;57850;52.922;6.256;2023-02-15T12:45:53;40.38;;;26.85;;
12467;SDS011;57850;52.922;6.256;2023-02-15T12:48:40;44.13;;;25.67;;
12467;SDS011;57850;52.922;6.256;2023-02-15T12:51:09;38.47;;;26.15;;
12467;SDS011;57850;52.922;6.256;2023-02-15T12:53:41;38.00;;;25.63;;
12467;SDS011;57850;52.922;6.256;2023-02-15T12:56:09;40.35;;;25.75;;
12467;SDS011;57850;52.922;6.256;2023-02-15T12:58:37;40.83;;;26.40;;
12467;SDS011;57850;52.922;6.256;2023-02-15T13:01:09;38.03;;;25.88;;
12467;SDS011;57850;52.922;6.256;2023-02-15T13:03:38;37.78;;;25.92;;
12467;SDS011;57850;52.922;6.256;2023-02-15T13:06:18;40.10;;;26.67;;
12467;SDS011;57850;52.922;6.256;2023-02-15T13:08:47;36.75;;;24.52;;
12467;SDS011;57850;52.922;6.256;2023-02-15T13:11:19;38.60;;;25.00;;
12467;SDS011;57850;52.922;6.256;2023-02-15T13:13:50;39.17;;;24.70;;
12467;SDS011;57850;52.922;6.256;2023-02-15T13:16:19;37.25;;;23.73;;
12467;SDS011;57850;52.922;6.256;2023-02-15T13:18:56;33.22;;;23.02;;
12467;SDS011;57850;52.922;6.256;2023-02-15T13:21:25;36.70;;;23.83;;
12467;SDS011;57850;52.922;6.256;2023-02-15T13:23:59;35.83;;;24.02;;
12467;SDS011;57850;52.922;6.256;2023-02-15T13:26:29;36.85;;;23.98;;
12467;SDS011;57850;52.922;6.256;2023-02-15T13:28:58;39.58;;;24.55;;
12467;SDS011;57850;52.922;6.256;2023-02-15T13:31:34;37.78;;;24.48;;
12467;SDS011;57850;52.922;6.256;2023-02-15T13:34:07;35.60;;;24.27;;
12467;SDS011;57850;52.922;6.256;2023-02-15T13:36:40;38.55;;;23.10;;
12467;SDS011;57850;52.922;6.256;2023-02-15T13:39:16;38.55;;;23.70;;
12467;SDS011;57850;52.922;6.256;2023-02-15T13:41:53;35.63;;;23.98;;
12467;SDS011;57850;52.922;6.256;2023-02-15T13:44:28;36.53;;;24.85;;
12467;SDS011;57850;52.922;6.256;2023-02-15T13:47:13;35.38;;;24.00;;
12467;SDS011;57850;52.922;6.256;2023-02-15T13:49:53;35.40;;;23.95;;
12467;SDS011;57850;52.922;6.256;2023-02-15T13:52:29;36.33;;;23.77;;
12467;SDS011;57850;52.922;6.256;2023-02-15T13:55:11;33.28;;;23.05;;
12467;SDS011;57850;52.922;6.256;2023-02-15T13:57:55;32.80;;;23.95;;
12467;SDS011;57850;52.922;6.256;2023-02-15T14:00:34;35.42;;;24.63;;
12467;SDS011;57850;52.922;6.256;2023-02-15T14:03:15;35.80;;;25.40;;
12467;SDS011;57850;52.922;6.256;2023-02-15T14:08:59;35.78;;;24.50;;
12467;SDS011;57850;52.922;6.256;2023-02-15T14:11:36;35.30;;;23.42;;
12467;SDS011;57850;52.922;6.256;2023-02-15T14:14:25;37.28;;;23.77;;
12467;SDS011;57850;52.922;6.256;2023-02-15T14:17:07;35.38;;;23.25;;
12467;SDS011;57850;52.922;6.256;2023-02-15T14:19:43;38.83;;;25.05;;
12467;SDS011;57850;52.922;6.256;2023-02-15T14:22:17;36.33;;;24.30;;
12467;SDS011;57850;52.922;6.256;2023-02-15T14:24:53;35.88;;;25.10;;
12467;SDS011;57850;52.922;6.256;2023-02-15T14:27:34;35.65;;;24.58;;
12467;SDS011;57850;52.922;6.256;2023-02-15T14:30:13;37.75;;;25.55;;
12467;SDS011;57850;52.922;6.256;2023-02-15T14:32:44;37.72;;;25.17;;
12467;SDS011;57850;52.922;6.256;2023-02-15T14:35:15;33.90;;;24.33;;
12467;SDS011;57850;52.922;6.256;2023-02-15T14:37:45;36.55;;;26.02;;
12467;SDS011;57850;52.922;6.256;2023-02-15T14:40:18;37.05;;;25.08;;
12467;SDS011;57850;52.922;6.256;2023-02-15T14:43:15;36.13;;;24.30;;
12467;SDS011;57850;52.922;6.256;2023-02-15T14:45:53;37.30;;;26.30;;
12467;SDS011;57850;52.922;6.256;2023-02-15T14:48:21;36.92;;;25.40;;
12467;SDS011;57850;52.922;6.256;2023-02-15T14:50:52;36.92;;;25.00;;
12467;SDS011;57850;52.922;6.256;2023-02-15T14:53:32;36.13;;;25.70;;
12467;SDS011;57850;52.922;6.256;2023-02-15T14:58:56;37.38;;;25.05;;